Time;durP1;ratioP1;P1;durP2;ratioP2;P2;SDS_P1;SDS_P2;PMS_P1;PMS_P2;Temp;Humidity;BMP_temperature;BMP_pressure;BME280_temperature;BME280_humidity;BME280_pressure;Samples;Min_cycle;Max_cycle;Signal;HPM_P1;HPM_P2
2022/09/12 00:00:51;;;;;;;2.72;2.17;;;;;;;12.77;100.00;98599.97;4342236;32;20090;-72
2022/09/12 00:03:37;;;;;;;9.45;2.75;;;;;;;12.81;100.00;98586.72;4345249;32;20040;-71
2022/09/12 00:06:13;;;;;;;5.50;2.37;;;;;;;12.67;100.00;98554.09;4343317;32;20044;-71
2022/09/12 00:08:40;;;;;;;4.20;3.17;;;;;;;12.94;100.00;98578.03;4368571;32;20043;-72
2022/09/12 00:11:09;;;;;;;7.15;2.90;;;;;;;12.80;100.00;98555.41;4412170;32;20881;-72
2022/09/12 00:13:37;;;;;;;5.72;3.03;;;;;;;12.98;100.00;98599.91;4375839;32;20482;-72
2022/09/12 00:16:04;;;;;;;3.20;2.30;;;;;;;12.86;100.00;98556.97;4376082;32;20027;-72
2022/09/12 00:18:32;;;;;;;4.65;2.62;;;;;;;12.93;100.00;98581.81;4373629;32;20104;-74
2022/09/12 00:21:03;;;;;;;8.82;2.35;;;;;;;12.65;100.00;98556.22;4369627;32;20047;-72
2022/09/12 00:23:31;;;;;;;3.83;2.62;;;;;;;12.62;100.00;98552.22;4377788;32;20064;-72
2022/09/12 00:25:58;;;;;;;2.67;2.22;;;;;;;12.44;100.00;98517.69;4386622;32;20034;-72
2022/09/12 00:28:25;;;;;;;6.60;2.40;;;;;;;12.56;100.00;98552.47;4398087;32;20064;-75
2022/09/12 00:30:51;;;;;;;4.43;2.72;;;;;;;12.64;100.00;98582.44;4393987;32;20074;-72
2022/09/12 00:33:18;;;;;;;2.40;2.10;;;;;;;12.78;100.00;98595.38;4382077;32;20074;-72
2022/09/12 00:35:47;;;;;;;13.57;2.70;;;;;;;12.52;100.00;98557.62;4366639;32;20169;-72
2022/09/12 00:38:15;;;;;;;6.57;2.72;;;;;;;12.57;100.00;98587.31;4367437;32;20492;-72
2022/09/12 00:40:41;;;;;;;4.85;2.78;;;;;;;12.62;100.00;98595.44;4361267;32;20079;-74
2022/09/12 00:43:32;;;;;;;6.95;2.35;;;;;;;12.48;100.00;98567.37;4364853;32;20064;-72
2022/09/12 00:46:04;;;;;;;3.37;2.15;;;;;;;12.80;100.00;98594.03;4364349;32;20044;-73
2022/09/12 00:48:51;;;;;;;4.60;2.30;;;;;;;12.54;100.00;98567.09;4348779;32;20024;-72
2022/09/12 00:51:18;;;;;;;4.85;2.67;;;;;;;12.71;100.00;98591.06;4355186;32;20061;-72
2022/09/12 00:53:48;;;;;;;5.50;2.65;;;;;;;12.37;100.00;98547.69;4363774;32;20070;-72
2022/09/12 00:56:17;;;;;;;5.07;2.70;;;;;;;12.66;100.00;98580.28;4368210;32;20094;-72
2022/09/12 00:58:53;;;;;;;2.70;2.50;;;;;;;12.74;100.00;98597.00;4382099;32;20655;-72
2022/09/12 01:01:19;;;;;;;4.95;3.00;;;;;;;12.82;100.00;98593.75;4381055;32;20041;-72
2022/09/12 01:03:46;;;;;;;3.47;2.87;;;;;;;12.58;100.00;98597.03;4379785;32;20554;-74
2022/09/12 01:06:24;;;;;;;6.85;2.80;;;;;;;12.46;100.00;98558.72;4396530;32;20775;-72
2022/09/12 01:08:51;;;;;;;2.20;1.98;;;;;;;12.46;100.00;98556.00;4410228;32;20088;-71
2022/09/12 01:11:19;;;;;;;5.72;3.00;;;;;;;12.48;100.00;98595.16;4398949;32;20104;-71
2022/09/12 01:13:47;;;;;;;13.73;2.92;;;;;;;12.40;100.00;98597.59;4398687;32;20064;-73
2022/09/12 01:16:14;;;;;;;10.05;2.92;;;;;;;12.18;100.00;98552.84;4400174;32;20517;-71
2022/09/12 01:19:11;;;;;;;4.90;2.75;;;;;;;12.52;100.00;98595.44;4398948;32;20023;-72
2022/09/12 01:22:05;;;;;;;7.03;2.37;;;;;;;12.55;100.00;98589.47;4399718;32;20063;-72
2022/09/12 01:24:59;;;;;;;9.00;3.10;;;;;;;12.58;100.00;98588.12;4398322;32;20062;-72
2022/09/12 01:27:41;;;;;;;2.28;2.08;;;;;;;12.57;100.00;98592.72;4412924;32;20049;-74
2022/09/12 01:30:39;;;;;;;4.18;2.83;;;;;;;12.30;100.00;98555.22;4408456;32;20399;-73
2022/09/12 01:33:34;;;;;;;6.55;2.50;;;;;;;12.41;100.00;98559.53;4423482;32;20458;-72
2022/09/12 01:36:23;;;;;;;5.50;2.97;;;;;;;12.63;100.00;98575.41;4417210;32;20045;-72
2022/09/12 01:38:58;;;;;;;8.90;3.15;;;;;;;12.86;100.00;98600.19;4415877;32;20444;-72
2022/09/12 01:41:42;;;;;;;12.18;3.00;;;;;;;12.84;100.00;98586.16;4420753;32;20064;-72
2022/09/12 01:44:43;;;;;;;3.75;2.70;;;;;;;12.70;100.00;98602.97;4414290;32;20046;-72
2022/09/12 01:47:45;;;;;;;10.40;3.30;;;;;;;12.61;100.00;98583.00;4414990;32;20039;-72
2022/09/12 01:50:17;;;;;;;9.60;2.72;;;;;;;12.74;100.00;98597.81;4367145;32;20121;-72
2022/09/12 01:52:51;;;;;;;11.57;3.00;;;;;;;12.75;100.00;98593.22;4368630;32;20049;-73
2022/09/12 01:55:29;;;;;;;8.80;3.25;;;;;;;12.63;100.00;98590.81;4368680;32;20057;-72
2022/09/12 01:58:08;;;;;;;7.40;2.90;;;;;;;12.67;100.00;98592.72;4367418;32;20112;-73
2022/09/12 02:00:44;;;;;;;9.55;3.22;;;;;;;12.66;100.00;98601.88;4373086;32;20054;-71
2022/09/12 02:03:16;;;;;;;7.25;3.47;;;;;;;12.58;100.00;98599.75;4397867;32;20601;-74
2022/09/12 02:05:51;;;;;;;7.10;3.47;;;;;;;12.42;100.00;98563.06;4398599;32;20035;-73
2022/09/12 02:08:26;;;;;;;5.72;2.85;;;;;;;12.28;100.00;98546.59;4408784;32;20022;-73
2022/09/12 02:11:00;;;;;;;4.90;2.90;;;;;;;12.51;100.00;98577.63;4368625;32;20059;-73
2022/09/12 02:13:41;;;;;;;10.45;3.45;;;;;;;12.31;100.00;98568.47;4367311;32;20174;-74
2022/09/12 02:16:15;;;;;;;6.60;3.20;;;;;;;12.57;100.00;98606.22;4351747;32;20061;-73
2022/09/12 02:18:45;;;;;;;8.88;4.10;;;;;;;12.20;100.00;98561.47;4353645;32;20079;-75
2022/09/12 02:21:12;;;;;;;8.32;3.37;;;;;;;12.35;100.00;98599.25;4353937;32;20055;-73
2022/09/12 02:23:45;;;;;;;9.52;3.75;;;;;;;11.99;100.00;98550.69;4353486;32;20073;-73
2022/09/12 02:26:25;;;;;;;7.70;4.97;;;;;;;12.11;100.00;98525.28;4354586;32;20465;-72
2022/09/12 02:28:53;;;;;;;10.05;3.85;;;;;;;12.08;100.00;98515.06;4381960;32;20047;-73
2022/09/12 02:31:26;;;;;;;9.50;4.57;;;;;;;11.98;100.00;98565.25;4384133;32;20106;-72
2022/09/12 02:34:18;;;;;;;8.18;4.37;;;;;;;12.42;100.00;98600.84;4381425;32;20032;-72
2022/09/12 02:36:51;;;;;;;12.00;4.10;;;;;;;12.44;100.00;98596.00;4381414;32;20035;-73
2022/09/12 02:39:19;;;;;;;5.37;3.85;;;;;;;12.37;100.00;98595.47;4369645;32;20117;-72
2022/09/12 02:41:50;;;;;;;8.25;3.83;;;;;;;12.38;100.00;98603.31;4382990;32;20117;-73
2022/09/12 02:44:16;;;;;;;6.03;3.60;;;;;;;12.44;100.00;98594.09;4402409;32;20102;-75
2022/09/12 02:46:49;;;;;;;6.75;3.97;;;;;;;12.25;100.00;98553.34;4406312;32;20076;-73
2022/09/12 02:49:16;;;;;;;4.68;3.35;;;;;;;12.26;100.00;98549.56;4419044;32;20030;-72
2022/09/12 02:51:49;;;;;;;5.90;3.50;;;;;;;12.25;100.00;98566.84;4417643;32;20044;-72
2022/09/12 02:54:17;;;;;;;5.85;3.37;;;;;;;12.37;100.00;98593.56;4392583;32;20102;-74
2022/09/12 02:56:45;;;;;;;5.53;3.28;;;;;;;12.35;100.00;98599.25;4390601;32;20068;-73
2022/09/12 02:59:20;;;;;;;8.50;3.92;;;;;;;12.39;100.00;98607.59;4389429;32;20570;-73
2022/09/12 03:02:31;;;;;;;8.88;3.60;;;;;;;12.17;100.00;98575.50;4393145;32;20102;-72
2022/09/12 03:05:13;;;;;;;5.70;3.47;;;;;;;12.31;100.00;98571.16;4391720;32;20062;-73
2022/09/12 03:08:17;;;;;;;10.07;3.67;;;;;;;12.67;100.00;98608.09;4392068;32;20042;-72
2022/09/12 03:10:56;;;;;;;8.85;3.85;;;;;;;12.74;100.00;98614.03;4384536;32;20101;-75
2022/09/12 03:13:37;;;;;;;6.37;3.53;;;;;;;12.41;100.00;98577.63;4390124;32;20035;-72
2022/09/12 03:16:13;;;;;;;8.73;4.00;;;;;;;12.37;100.00;98581.97;4389342;32;20426;-72
2022/09/12 03:19:18;;;;;;;6.57;3.22;;;;;;;12.55;100.00;98613.78;4393204;32;20042;-72
2022/09/12 03:22:02;;;;;;;7.35;3.45;;;;;;;12.39;100.00;98620.28;4388254;32;20128;-72
2022/09/12 03:24:36;;;;;;;10.82;3.08;;;;;;;12.42;100.00;98617.84;4395991;32;20031;-73
2022/09/12 03:27:15;;;;;;;6.35;3.78;;;;;;;12.39;100.00;98623.00;4438338;32;20046;-73
2022/09/12 03:29:45;;;;;;;12.05;3.17;;;;;;;12.16;100.00;98588.19;4432662;32;20203;-72
2022/09/12 03:32:11;;;;;;;4.82;3.28;;;;;;;12.33;100.00;98608.69;4432989;32;20060;-73
2022/09/12 03:34:37;;;;;;;3.53;3.20;;;;;;;12.48;100.00;98622.19;4432658;32;20056;-72
2022/09/12 03:37:04;;;;;;;10.68;3.65;;;;;;;12.22;100.00;98613.31;4397220;32;20034;-73
2022/09/12 03:39:31;;;;;;;8.00;3.60;;;;;;;12.11;100.00;98571.19;4396998;32;20064;-72
2022/09/12 03:41:57;;;;;;;5.70;3.90;;;;;;;12.66;100.00;98633.50;4403151;32;20038;-73
2022/09/12 03:44:24;;;;;;;5.97;3.40;;;;;;;12.28;100.00;98560.91;4414252;32;20072;-73
2022/09/12 03:46:51;;;;;;;11.73;3.62;;;;;;;12.74;100.00;98642.94;4413857;32;20486;-73
2022/09/12 03:49:17;;;;;;;7.97;3.70;;;;;;;12.66;100.00;98641.59;4411949;32;20026;-72
2022/09/12 03:51:43;;;;;;;8.02;4.00;;;;;;;12.52;100.00;98596.25;4412060;32;20038;-72
2022/09/12 03:54:10;;;;;;;5.60;3.67;;;;;;;12.62;100.00;98641.34;4398301;32;20078;-72
2022/09/12 03:56:36;;;;;;;16.73;4.45;;;;;;;12.66;100.00;98655.09;4398197;32;20035;-73
2022/09/12 03:59:06;;;;;;;6.97;3.58;;;;;;;12.34;100.00;98616.50;4398322;32;20418;-73
2022/09/12 04:01:32;;;;;;;8.20;3.95;;;;;;;12.60;100.00;98640.78;4394912;32;20082;-72
2022/09/12 04:03:59;;;;;;;4.95;3.53;;;;;;;12.07;100.00;98594.41;4396362;32;20384;-73
2022/09/12 04:06:25;;;;;;;10.18;3.08;;;;;;;12.52;100.00;98652.13;4396986;32;20034;-71
2022/09/12 04:08:54;;;;;;;5.75;4.12;;;;;;;12.45;100.00;98659.72;4401939;32;20500;-72
2022/09/12 04:11:21;;;;;;;5.22;3.70;;;;;;;12.51;100.00;98647.84;4404970;32;20061;-72
2022/09/12 04:13:48;;;;;;;4.47;3.55;;;;;;;12.15;100.00;98610.06;4403019;32;20064;-72
2022/09/12 04:16:16;;;;;;;5.68;3.47;;;;;;;12.40;100.00;98659.69;4376864;32;20059;-72
2022/09/12 04:18:43;;;;;;;6.82;3.50;;;;;;;12.16;100.00;98625.16;4401340;32;20056;-73
2022/09/12 04:21:18;;;;;;;4.90;3.20;;;;;;;12.05;100.00;98621.66;4404934;32;20031;-72
2022/09/12 04:23:44;;;;;;;6.85;3.78;;;;;;;12.53;100.00;98656.47;4404324;32;20068;-72
2022/09/12 04:26:12;;;;;;;8.68;3.80;;;;;;;12.06;100.00;98625.16;4410945;32;20092;-72
2022/09/12 04:28:39;;;;;;;9.95;3.35;;;;;;;12.23;100.00;98631.09;4412945;32;20068;-72
2022/09/12 04:31:09;;;;;;;6.15;3.92;;;;;;;12.23;100.00;98628.41;4409777;32;20052;-73
2022/09/12 04:33:35;;;;;;;13.32;3.70;;;;;;;12.42;100.00;98660.25;4404905;32;20484;-73
2022/09/12 04:36:08;;;;;;;7.60;4.10;;;;;;;12.04;100.00;98633.50;4405505;32;20093;-73
2022/09/12 04:38:35;;;;;;;9.15;4.25;;;;;;;12.09;100.00;98640.81;4411031;32;20391;-73
2022/09/12 04:41:10;;;;;;;8.70;5.10;;;;;;;12.00;100.00;98637.84;4415691;32;20115;-73
2022/09/12 04:43:37;;;;;;;5.35;4.07;;;;;;;12.08;100.00;98633.81;4410486;32;20406;-72
2022/09/12 04:46:05;;;;;;;6.28;4.47;;;;;;;12.28;100.00;98671.56;4413170;32;20042;-74
2022/09/12 04:48:32;;;;;;;5.65;4.45;;;;;;;12.38;100.00;98673.50;4411177;32;20479;-73
2022/09/12 04:51:10;;;;;;;8.57;4.70;;;;;;;11.94;100.00;98645.13;4411498;32;20056;-72
2022/09/12 04:53:37;;;;;;;10.90;4.12;;;;;;;12.28;100.00;98628.37;4409338;32;20338;-73
2022/09/12 04:56:07;;;;;;;5.87;4.18;;;;;;;12.61;100.00;98690.22;4411247;32;20068;-73
2022/09/12 04:58:34;;;;;;;11.32;4.53;;;;;;;12.46;100.00;98639.72;4412493;32;20031;-73
2022/09/12 05:01:20;;;;;;;6.62;3.72;;;;;;;12.70;100.00;98688.56;4410098;32;20026;-73
2022/09/12 05:03:48;;;;;;;15.57;4.10;;;;;;;12.77;100.00;98682.91;4411084;32;20058;-72
2022/09/12 05:06:25;;;;;;;9.82;4.28;;;;;;;12.68;100.00;98685.34;4412710;32;20034;-72
2022/09/12 05:08:54;;;;;;;3.97;3.50;;;;;;;12.83;100.00;98689.94;4418129;32;20099;-72
2022/09/12 05:11:23;;;;;;;5.65;4.03;;;;;;;12.76;100.00;98687.50;4440004;32;20590;-72
2022/09/12 05:13:49;;;;;;;6.15;3.53;;;;;;;12.63;100.00;98645.63;4442741;32;20042;-73
2022/09/12 05:16:17;;;;;;;4.68;3.25;;;;;;;12.60;100.00;98656.19;4441295;32;20145;-73
2022/09/12 05:18:44;;;;;;;5.25;3.62;;;;;;;13.09;100.00;98696.88;4439905;32;20026;-72
2022/09/12 05:21:13;;;;;;;4.85;2.95;;;;;;;13.03;100.00;98681.75;4441711;32;20038;-73
2022/09/12 05:23:41;;;;;;;5.18;3.80;;;;;;;13.02;100.00;98682.87;4447531;32;20371;-72
2022/09/12 05:26:12;;;;;;;6.47;3.50;;;;;;;13.24;100.00;98692.50;4443841;32;20038;-72
2022/09/12 05:28:39;;;;;;;5.32;3.15;;;;;;;13.12;100.00;98656.91;4446241;32;20038;-74
2022/09/12 05:31:17;;;;;;;4.07;2.78;;;;;;;13.19;100.00;98663.59;4436860;32;20045;-73
2022/09/12 05:33:46;;;;;;;5.97;3.33;;;;;;;13.41;100.00;98689.53;4441795;32;20050;-73
2022/09/12 05:36:19;;;;;;;5.97;2.83;;;;;;;13.32;100.00;98662.19;4444690;32;20049;-73
2022/09/12 05:38:52;;;;;;;6.20;3.65;;;;;;;13.24;100.00;98666.31;4440265;32;20454;-76
2022/09/12 05:41:23;;;;;;;8.60;3.58;;;;;;;13.42;100.00;98694.66;4442851;32;20094;-78
2022/09/12 05:43:54;;;;;;;7.62;3.30;;;;;;;13.25;100.00;98662.50;4442605;32;20099;-76
2022/09/12 05:46:26;;;;;;;10.63;3.35;;;;;;;13.60;100.00;98695.13;4439207;32;20050;-79
2022/09/12 05:48:54;;;;;;;5.00;3.05;;;;;;;12.98;100.00;98664.75;4422619;32;21241;-75
2022/09/12 05:51:26;;;;;;;8.75;2.85;;;;;;;13.05;100.00;98693.13;4410904;32;20101;-75
2022/09/12 05:53:58;;;;;;;3.75;2.05;;;;;;;13.15;100.00;98699.59;4411547;32;20076;-74
2022/09/12 05:56:29;;;;;;;3.78;3.15;;;;;;;12.61;100.00;98642.41;4379566;32;20077;-79
2022/09/12 05:58:58;;;;;;;5.25;2.47;;;;;;;13.13;100.00;98701.75;4383767;32;20077;-75
2022/09/12 06:01:26;;;;;;;10.10;3.17;;;;;;;13.51;100.00;98696.78;4381665;32;20035;-75
2022/09/12 06:03:56;;;;;;;6.95;2.65;;;;;;;13.03;100.00;98665.53;4381722;32;20114;-75
2022/09/12 06:06:24;;;;;;;3.10;2.80;;;;;;;13.02;100.00;98701.78;4382023;32;20134;-76
2022/09/12 06:08:52;;;;;;;7.55;2.80;;;;;;;13.21;100.00;98655.22;4383209;32;20512;-75
2022/09/12 06:11:24;;;;;;;3.20;2.87;;;;;;;13.42;100.00;98678.44;4382776;32;20022;-76
2022/09/12 06:13:51;;;;;;;10.55;3.28;;;;;;;13.75;100.00;98716.72;4384032;32;20473;-76
2022/09/12 06:16:21;;;;;;;7.20;2.65;;;;;;;13.39;100.00;98721.44;4359213;32;20036;-78
2022/09/12 06:18:49;;;;;;;4.82;2.83;;;;;;;13.27;100.00;98670.34;4344814;32;20069;-74
2022/09/12 06:21:15;;;;;;;7.90;3.58;;;;;;;13.37;100.00;98670.34;4349964;32;20043;-74
2022/09/12 06:23:43;;;;;;;7.90;2.83;;;;;;;13.61;100.00;98692.16;4367432;32;20182;-74
2022/09/12 06:26:10;;;;;;;6.57;3.20;;;;;;;13.70;100.00;98700.47;4396690;32;20038;-75
2022/09/12 06:28:40;;;;;;;7.22;3.12;;;;;;;13.92;100.00;98696.59;4425823;32;20041;-73
2022/09/12 06:31:18;;;;;;;3.30;2.28;;;;;;;13.90;100.00;98701.47;4427300;32;20198;-76
2022/09/12 06:33:49;;;;;;;3.53;2.83;;;;;;;14.05;100.00;98714.91;4427630;32;20034;-76
2022/09/12 06:36:20;;;;;;;4.62;2.53;;;;;;;14.13;100.00;98708.88;4424731;32;20479;-77
2022/09/12 06:38:47;;;;;;;4.18;2.35;;;;;;;13.53;100.00;98618.88;4428563;32;20096;-74
2022/09/12 06:41:14;;;;;;;11.18;2.50;;;;;;;13.57;100.00;98631.56;4427045;32;20033;-73
2022/09/12 06:43:41;;;;;;;10.25;2.58;;;;;;;14.12;100.00;98715.41;4419982;32;20022;-75
2022/09/12 06:46:09;;;;;;;5.30;3.08;;;;;;;13.99;100.00;98680.81;4424056;32;20050;-76
2022/09/12 06:48:35;;;;;;;6.95;2.60;;;;;;;13.99;100.00;98716.00;4426501;32;20356;-74
2022/09/12 06:51:03;;;;;;;4.32;2.60;;;;;;;14.06;100.00;98680.53;4427100;32;20064;-74
2022/09/12 06:53:35;;;;;;;6.93;3.15;;;;;;;14.20;100.00;98676.09;4370385;32;20506;-74
2022/09/12 06:56:18;;;;;;;3.03;2.22;;;;;;;13.95;100.00;98648.09;4377754;32;20031;-78
2022/09/12 06:58:47;;;;;;;6.68;2.20;;;;;;;14.43;100.00;98717.91;4368628;32;20073;-75
2022/09/12 07:01:16;;;;;;;2.42;2.20;;;;;;;14.36;100.00;98725.53;4375517;32;20055;-70
2022/09/12 07:03:47;;;;;;;6.32;2.50;;;;;;;14.22;100.00;98700.19;4374529;32;20070;-80
2022/09/12 07:06:17;;;;;;;2.70;2.50;;;;;;;14.35;100.00;98721.22;4384467;32;20212;-74
2022/09/12 07:08:44;;;;;;;6.07;2.70;;;;;;;14.63;100.00;98716.12;4368608;32;20064;-74
2022/09/12 07:11:13;;;;;;;6.87;2.20;;;;;;;14.10;100.00;98671.53;4369821;32;20093;-73
